Rocha, Argentina
Current Conditions -  °F | °C
As of 5:00 PM on Friday 31 Oct 2014 (Local Time) from SAZM Reporting Station
Scattered Clouds Scattered Clouds  
Wind Chill: 57°   Ceiling: Unl
Heat Index: 57°   Visibility: 6mi
Dew Point: 34°   Wind: 12mph
Humidity: 41%   Direction: 230°SW
Pressure: 30.09"   Gusts: NA
Location:  37.18°S, 60.97°W
Report Text: SAZM 312000Z 23010KT 9999 FEW025 SCT10014/01 Q1019
Loading
Personal Weather Stations






























Interactive Weather Map New forecast layout! Learn more

10-Day Weather Forecast

Advertisements
Track Severe Weather on mobile